LHBPLZIB

Guest
Details From LHBP - Budapest Ferihegy
To LZIB - Bratislava Mr Stefanik
Flight Number -
Tags Generated
Created
Modified
Stats Distance 92 nm / 171 km
Max Altitude 0 ft / 0 m
Waypoints 2
Social Downloads 2
Likes 0
Share VATSIM

Download

Looking for another format? Having issues loading an existing format? Contact us
Advertisement - Login to hide

Notes

Generated

Route

LHBP LZIB

ID Type Via Altitude Latitude Longitude Leg Dist Tot Dist Heading (true) Name
O LHBP APT - 0 ft / 0 m 47.44871˚ 19.22076˚ - 0 nm - -
O LZIB APT - 0 ft / 0 m 48.16081˚ 17.19942˚ 92 nm 92 nm 298° / 297° -

Altitude Profile

Advertisement - Login to hide

LHBP

Details ICAO LHBP (BUD)
Name Ferihegy (Budapest)
Region Hungary
Timezone Europe/Budapest (UTC+1.0)
Stats Elevation 495 ft / 151 m (AMSL)
Location 47.435292° 19.265792°
Runways 3
Magnetic Variation 4.765° E

METAR

LHBP 182030Z 33006KT 9999 BKN049 00/M03 Q1025 NOSIG

Decode

TAF

TAF TAF LHBP 181715Z 1818/1918 34006KT CAVOK TEMPO 1818/1822 BKN045 BECMG 1821/1824 VRB02KT 4500 BR TEMPO 1902/1906 1200 FZBCFG BECMG 1908/1910 31007KT CAVOK

Decode

Departure Runways

ID Width Length Bearing (true) Bearing (mag) Surface Threshold Offset Overrun Length
13 250 ft / 76 m 6,000 ft / 1,829 m 132.54° 127.77° Unknown 0 ft / 0 m 0 ft / 0 m
13L 196 ft / 60 m 12,487 ft / 3,806 m 132.54° 127.77° Asphalt 0 ft / 0 m 200 ft / 61 m
13R 196 ft / 60 m 10,145 ft / 3,092 m 132.49° 127.72° Asphalt 0 ft / 0 m 197 ft / 60 m
31 250 ft / 76 m 6,000 ft / 1,829 m 312.55° 307.78° Unknown 0 ft / 0 m 0 ft / 0 m
31L 196 ft / 60 m 10,145 ft / 3,092 m 312.51° 307.74° Asphalt 0 ft / 0 m 197 ft / 60 m
31R 196 ft / 60 m 12,487 ft / 3,806 m 312.56° 307.79° Asphalt 0 ft / 0 m 197 ft / 60 m

LZIB

Details ICAO LZIB (BTS)
Name Bratislava/M.R. Stefanik
Region Slovakia
Timezone Europe/Bratislava (UTC+1.0)
Stats Elevation 436 ft / 133 m (AMSL)
Location 48.168314° 17.215597°
Runways 2
Magnetic Variation 4.406° E

METAR

LZIB 182030Z 30005KT CAVOK M01/M04 Q1027

Decode

TAF

Not found

Destination Runways

ID Width Length Bearing (true) Bearing (mag) Surface Threshold Offset Overrun Length
04 197 ft / 60 m 9,540 ft / 2,908 m 43.80° 39.39° Concrete 0 ft / 0 m 7 ft / 2 m
13 148 ft / 45 m 9,688 ft / 2,953 m 134.02° 129.61° Concrete 0 ft / 0 m 98 ft / 30 m
22 197 ft / 60 m 9,540 ft / 2,908 m 223.82° 219.41° Concrete 0 ft / 0 m 49 ft / 15 m
31 148 ft / 45 m 9,688 ft / 2,953 m 314.04° 309.63° Concrete 0 ft / 0 m 810 ft / 247 m

Approach Navaids

Runway Type Ident Frequency Range Bearing (true) Bearing (mag) Slope Elevation
22 Glidescope OKR 108.30 MHz 10 nm / 19 km 223.83° 219.42° 3.00° 436 ft / 133 m (AMSL)
22 DME OKR 108.30 MHz 25 nm / 46 km - - - 436 ft / 133 m (AMSL)
31 Glidescope OB 110.70 MHz 10 nm / 19 km 313.99° 309.58° 3.00° 433 ft / 132 m (AMSL)
31 DME OB 110.70 MHz 25 nm / 46 km - - - 433 ft / 132 m (AMSL)

Popular Alternatives